sensor_id;sensor_type;location;lat;lon;timestamp;P1;P2;P0
59546;PMS5003;45368;55.002;-1.592;2023-05-08T00:00:35;45;42;
59546;PMS5003;45368;55.002;-1.592;2023-05-08T00:03:03;48;42;
59546;PMS5003;45368;55.002;-1.592;2023-05-08T00:05:30;42;41;
59546;PMS5003;45368;55.002;-1.592;2023-05-08T00:07:57;42;38;
59546;PMS5003;45368;55.002;-1.592;2023-05-08T00:10:24;37;34;
59546;PMS5003;45368;55.002;-1.592;2023-05-08T00:12:52;40;39;
59546;PMS5003;45368;55.002;-1.592;2023-05-08T00:15:26;42;39;
59546;PMS5003;45368;55.002;-1.592;2023-05-08T00:17:53;44;41;
59546;PMS5003;45368;55.002;-1.592;2023-05-08T00:20:24;44;42;
59546;PMS5003;45368;55.002;-1.592;2023-05-08T00:22:51;42;38;
59546;PMS5003;45368;55.002;-1.592;2023-05-08T00:25:18;44;42;
59546;PMS5003;45368;55.002;-1.592;2023-05-08T00:27:47;46;41;
59546;PMS5003;45368;55.002;-1.592;2023-05-08T00:30:14;55;45;
59546;PMS5003;45368;55.002;-1.592;2023-05-08T00:32:42;45;42;
59546;PMS5003;45368;55.002;-1.592;2023-05-08T00:35:09;40;38;
59546;PMS5003;45368;55.002;-1.592;2023-05-08T00:37:36;41;39;
59546;PMS5003;45368;55.002;-1.592;2023-05-08T00:40:04;46;45;
59546;PMS5003;45368;55.002;-1.592;2023-05-08T00:42:31;41;40;
59546;PMS5003;45368;55.002;-1.592;2023-05-08T00:44:59;34;33;
59546;PMS5003;45368;55.002;-1.592;2023-05-08T00:47:26;38;36;
59546;PMS5003;45368;55.002;-1.592;2023-05-08T00:49:55;42;40;
59546;PMS5003;45368;55.002;-1.592;2023-05-08T00:52:24;38;36;
59546;PMS5003;45368;55.002;-1.592;2023-05-08T00:54:53;39;37;
59546;PMS5003;45368;55.002;-1.592;2023-05-08T00:57:21;42;40;
59546;PMS5003;45368;55.002;-1.592;2023-05-08T00:59:48;37;36;
59546;PMS5003;45368;55.002;-1.592;2023-05-08T01:02:17;35;34;
59546;PMS5003;45368;55.002;-1.592;2023-05-08T01:04:44;36;31;
59546;PMS5003;45368;55.002;-1.592;2023-05-08T01:07:13;33;32;
59546;PMS5003;45368;55.002;-1.592;2023-05-08T01:09:44;32;31;
59546;PMS5003;45368;55.002;-1.592;2023-05-08T01:12:14;29;28;
59546;PMS5003;45368;55.002;-1.592;2023-05-08T01:14:55;29;26;
59546;PMS5003;45368;55.002;-1.592;2023-05-08T01:17:33;25;23;
59546;PMS5003;45368;55.002;-1.592;2023-05-08T01:20:16;28;26;
59546;PMS5003;45368;55.002;-1.592;2023-05-08T01:22:59;32;26;
59546;PMS5003;45368;55.002;-1.592;2023-05-08T01:25:55;22;21;
59546;PMS5003;45368;55.002;-1.592;2023-05-08T01:29:19;22;18;
59546;PMS5003;45368;55.002;-1.592;2023-05-08T01:32:11;22;20;
59546;PMS5003;45368;55.002;-1.592;2023-05-08T01:34:45;22;20;
59546;PMS5003;45368;55.002;-1.592;2023-05-08T01:37:25;18;16;
59546;PMS5003;45368;55.002;-1.592;2023-05-08T01:39:56;14;13;
59546;PMS5003;45368;55.002;-1.592;2023-05-08T01:42:38;11;9;
59546;PMS5003;45368;55.002;-1.592;2023-05-08T01:45:17;8;8;
59546;PMS5003;45368;55.002;-1.592;2023-05-08T01:47:49;8;7;
59546;PMS5003;45368;55.002;-1.592;2023-05-08T01:50:25;6;6;
59546;PMS5003;45368;55.002;-1.592;2023-05-08T01:53:02;7;7;
59546;PMS5003;45368;55.002;-1.592;2023-05-08T01:55:33;5;5;
59546;PMS5003;45368;55.002;-1.592;2023-05-08T01:58:04;3;3;
59546;PMS5003;45368;55.002;-1.592;2023-05-08T02:00:35;5;4;
59546;PMS5003;45368;55.002;-1.592;2023-05-08T02:03:05;5;5;
59546;PMS5003;45368;55.002;-1.592;2023-05-08T02:05:35;6;4;
59546;PMS5003;45368;55.002;-1.592;2023-05-08T02:08:03;6;6;
59546;PMS5003;45368;55.002;-1.592;2023-05-08T02:10:32;5;4;
59546;PMS5003;45368;55.002;-1.592;2023-05-08T02:13:01;5;4;
59546;PMS5003;45368;55.002;-1.592;2023-05-08T02:15:29;4;4;
59546;PMS5003;45368;55.002;-1.592;2023-05-08T02:17:58;5;5;
59546;PMS5003;45368;55.002;-1.592;2023-05-08T02:20:26;6;5;
59546;PMS5003;45368;55.002;-1.592;2023-05-08T02:22:54;5;4;
59546;PMS5003;45368;55.002;-1.592;2023-05-08T02:25:23;4;4;
59546;PMS5003;45368;55.002;-1.592;2023-05-08T02:27:56;3;3;
59546;PMS5003;45368;55.002;-1.592;2023-05-08T02:30:24;5;4;
59546;PMS5003;45368;55.002;-1.592;2023-05-08T02:32:53;5;5;
59546;PMS5003;45368;55.002;-1.592;2023-05-08T02:35:22;5;5;
59546;PMS5003;45368;55.002;-1.592;2023-05-08T02:37:51;6;6;
59546;PMS5003;45368;55.002;-1.592;2023-05-08T02:40:22;6;6;
59546;PMS5003;45368;55.002;-1.592;2023-05-08T02:42:53;7;6;
59546;PMS5003;45368;55.002;-1.592;2023-05-08T02:45:21;6;6;
59546;PMS5003;45368;55.002;-1.592;2023-05-08T02:47:51;10;9;
59546;PMS5003;45368;55.002;-1.592;2023-05-08T02:50:27;8;7;
59546;PMS5003;45368;55.002;-1.592;2023-05-08T02:53:01;6;6;
59546;PMS5003;45368;55.002;-1.592;2023-05-08T02:55:32;10;9;
59546;PMS5003;45368;55.002;-1.592;2023-05-08T02:58:10;8;7;
59546;PMS5003;45368;55.002;-1.592;2023-05-08T03:00:45;9;6;
59546;PMS5003;45368;55.002;-1.592;2023-05-08T03:03:18;7;6;
59546;PMS5003;45368;55.002;-1.592;2023-05-08T03:05:50;6;5;
59546;PMS5003;45368;55.002;-1.592;2023-05-08T03:08:21;5;5;
59546;PMS5003;45368;55.002;-1.592;2023-05-08T03:10:54;8;7;
59546;PMS5003;45368;55.002;-1.592;2023-05-08T03:13:24;7;7;
59546;PMS5003;45368;55.002;-1.592;2023-05-08T03:15:56;6;5;
59546;PMS5003;45368;55.002;-1.592;2023-05-08T03:18:27;8;6;
59546;PMS5003;45368;55.002;-1.592;2023-05-08T03:20:58;6;5;
59546;PMS5003;45368;55.002;-1.592;2023-05-08T03:23:27;7;7;
59546;PMS5003;45368;55.002;-1.592;2023-05-08T03:25:56;10;9;
59546;PMS5003;45368;55.002;-1.592;2023-05-08T03:28:26;7;6;
59546;PMS5003;45368;55.002;-1.592;2023-05-08T03:30:54;5;5;
59546;PMS5003;45368;55.002;-1.592;2023-05-08T03:33:22;9;8;
59546;PMS5003;45368;55.002;-1.592;2023-05-08T03:35:52;8;7;
59546;PMS5003;45368;55.002;-1.592;2023-05-08T03:38:21;8;8;
59546;PMS5003;45368;55.002;-1.592;2023-05-08T03:40:50;8;8;
59546;PMS5003;45368;55.002;-1.592;2023-05-08T03:43:18;9;9;
59546;PMS5003;45368;55.002;-1.592;2023-05-08T03:45:47;8;8;
59546;PMS5003;45368;55.002;-1.592;2023-05-08T03:48:16;10;7;
59546;PMS5003;45368;55.002;-1.592;2023-05-08T03:50:44;9;7;
59546;PMS5003;45368;55.002;-1.592;2023-05-08T03:53:13;8;8;
59546;PMS5003;45368;55.002;-1.592;2023-05-08T03:55:39;8;7;
59546;PMS5003;45368;55.002;-1.592;2023-05-08T03:58:09;7;7;
59546;PMS5003;45368;55.002;-1.592;2023-05-08T04:00:50;7;6;
59546;PMS5003;45368;55.002;-1.592;2023-05-08T04:03:30;7;7;
59546;PMS5003;45368;55.002;-1.592;2023-05-08T04:06:08;7;7;
59546;PMS5003;45368;55.002;-1.592;2023-05-08T04:08:40;10;9;
59546;PMS5003;45368;55.002;-1.592;2023-05-08T04:11:17;9;9;
59546;PMS5003;45368;55.002;-1.592;2023-05-08T04:13:53;12;11;
59546;PMS5003;45368;55.002;-1.592;2023-05-08T04:16:27;7;7;
59546;PMS5003;45368;55.002;-1.592;2023-05-08T04:19:07;8;8;
59546;PMS5003;45368;55.002;-1.592;2023-05-08T04:21:41;8;7;
59546;PMS5003;45368;55.002;-1.592;2023-05-08T04:24:11;7;7;
59546;PMS5003;45368;55.002;-1.592;2023-05-08T04:26:40;8;8;
59546;PMS5003;45368;55.002;-1.592;2023-05-08T04:29:09;5;5;
59546;PMS5003;45368;55.002;-1.592;2023-05-08T04:31:37;7;7;
59546;PMS5003;45368;55.002;-1.592;2023-05-08T04:34:06;9;8;
59546;PMS5003;45368;55.002;-1.592;2023-05-08T04:36:34;7;6;
59546;PMS5003;45368;55.002;-1.592;2023-05-08T04:39:01;8;7;
59546;PMS5003;45368;55.002;-1.592;2023-05-08T04:41:29;8;7;
59546;PMS5003;45368;55.002;-1.592;2023-05-08T04:43:56;6;5;
59546;PMS5003;45368;55.002;-1.592;2023-05-08T04:46:24;9;8;
59546;PMS5003;45368;55.002;-1.592;2023-05-08T04:48:52;8;7;
59546;PMS5003;45368;55.002;-1.592;2023-05-08T04:51:20;7;6;
59546;PMS5003;45368;55.002;-1.592;2023-05-08T04:53:47;9;8;
59546;PMS5003;45368;55.002;-1.592;2023-05-08T04:56:14;9;8;
59546;PMS5003;45368;55.002;-1.592;2023-05-08T04:58:41;7;6;
59546;PMS5003;45368;55.002;-1.592;2023-05-08T05:01:08;8;8;
59546;PMS5003;45368;55.002;-1.592;2023-05-08T05:03:35;7;7;
59546;PMS5003;45368;55.002;-1.592;2023-05-08T05:06:02;7;7;
59546;PMS5003;45368;55.002;-1.592;2023-05-08T05:08:30;8;8;
59546;PMS5003;45368;55.002;-1.592;2023-05-08T05:10:57;10;9;
59546;PMS5003;45368;55.002;-1.592;2023-05-08T05:13:23;9;8;
59546;PMS5003;45368;55.002;-1.592;2023-05-08T05:15:50;8;7;
59546;PMS5003;45368;55.002;-1.592;2023-05-08T05:18:21;9;7;
59546;PMS5003;45368;55.002;-1.592;2023-05-08T05:20:48;6;6;
59546;PMS5003;45368;55.002;-1.592;2023-05-08T05:23:16;7;7;
59546;PMS5003;45368;55.002;-1.592;2023-05-08T05:25:44;6;6;
59546;PMS5003;45368;55.002;-1.592;2023-05-08T05:28:11;7;7;
59546;PMS5003;45368;55.002;-1.592;2023-05-08T05:31:43;9;8;
59546;PMS5003;45368;55.002;-1.592;2023-05-08T05:34:14;8;8;
59546;PMS5003;45368;55.002;-1.592;2023-05-08T05:36:42;8;8;
59546;PMS5003;45368;55.002;-1.592;2023-05-08T05:39:09;10;9;
59546;PMS5003;45368;55.002;-1.592;2023-05-08T05:41:36;8;8;
59546;PMS5003;45368;55.002;-1.592;2023-05-08T05:44:03;11;10;
59546;PMS5003;45368;55.002;-1.592;2023-05-08T05:46:31;10;10;
59546;PMS5003;45368;55.002;-1.592;2023-05-08T05:48:58;12;10;
59546;PMS5003;45368;55.002;-1.592;2023-05-08T05:51:24;8;7;
59546;PMS5003;45368;55.002;-1.592;2023-05-08T05:53:52;9;9;
59546;PMS5003;45368;55.002;-1.592;2023-05-08T05:56:19;10;10;
59546;PMS5003;45368;55.002;-1.592;2023-05-08T05:58:47;16;13;
59546;PMS5003;45368;55.002;-1.592;2023-05-08T06:01:14;11;11;
59546;PMS5003;45368;55.002;-1.592;2023-05-08T06:03:40;10;10;
59546;PMS5003;45368;55.002;-1.592;2023-05-08T06:06:07;11;11;
59546;PMS5003;45368;55.002;-1.592;2023-05-08T06:08:34;9;9;
59546;PMS5003;45368;55.002;-1.592;2023-05-08T06:11:01;13;12;
59546;PMS5003;45368;55.002;-1.592;2023-05-08T06:13:29;9;9;
59546;PMS5003;45368;55.002;-1.592;2023-05-08T06:15:55;11;10;
59546;PMS5003;45368;55.002;-1.592;2023-05-08T06:18:23;14;13;
59546;PMS5003;45368;55.002;-1.592;2023-05-08T06:20:54;9;9;
59546;PMS5003;45368;55.002;-1.592;2023-05-08T06:23:22;13;10;
59546;PMS5003;45368;55.002;-1.592;2023-05-08T06:25:49;16;13;
59546;PMS5003;45368;55.002;-1.592;2023-05-08T06:28:17;12;12;
59546;PMS5003;45368;55.002;-1.592;2023-05-08T06:30:44;11;10;
59546;PMS5003;45368;55.002;-1.592;2023-05-08T06:33:11;14;11;
59546;PMS5003;45368;55.002;-1.592;2023-05-08T06:35:44;14;14;
59546;PMS5003;45368;55.002;-1.592;2023-05-08T06:38:12;13;12;
59546;PMS5003;45368;55.002;-1.592;2023-05-08T06:40:40;10;10;
59546;PMS5003;45368;55.002;-1.592;2023-05-08T06:43:08;12;11;
59546;PMS5003;45368;55.002;-1.592;2023-05-08T06:45:35;13;13;
59546;PMS5003;45368;55.002;-1.592;2023-05-08T06:48:03;10;10;
59546;PMS5003;45368;55.002;-1.592;2023-05-08T06:50:31;15;12;
59546;PMS5003;45368;55.002;-1.592;2023-05-08T06:52:58;15;13;
59546;PMS5003;45368;55.002;-1.592;2023-05-08T06:55:25;14;13;
59546;PMS5003;45368;55.002;-1.592;2023-05-08T06:57:52;13;10;
59546;PMS5003;45368;55.002;-1.592;2023-05-08T07:00:19;9;9;
59546;PMS5003;45368;55.002;-1.592;2023-05-08T07:02:46;15;14;
59546;PMS5003;45368;55.002;-1.592;2023-05-08T07:05:13;11;10;
59546;PMS5003;45368;55.002;-1.592;2023-05-08T07:07:41;14;14;
59546;PMS5003;45368;55.002;-1.592;2023-05-08T07:10:08;12;12;
59546;PMS5003;45368;55.002;-1.592;2023-05-08T07:12:35;10;9;
59546;PMS5003;45368;55.002;-1.592;2023-05-08T07:15:03;13;13;
59546;PMS5003;45368;55.002;-1.592;2023-05-08T07:17:31;13;12;
59546;PMS5003;45368;55.002;-1.592;2023-05-08T07:19:58;13;13;
59546;PMS5003;45368;55.002;-1.592;2023-05-08T07:22:24;15;14;
59546;PMS5003;45368;55.002;-1.592;2023-05-08T07:24:51;12;12;
59546;PMS5003;45368;55.002;-1.592;2023-05-08T07:27:18;15;13;
59546;PMS5003;45368;55.002;-1.592;2023-05-08T07:29:45;13;13;
59546;PMS5003;45368;55.002;-1.592;2023-05-08T07:32:12;13;13;
59546;PMS5003;45368;55.002;-1.592;2023-05-08T07:34:39;15;14;
59546;PMS5003;45368;55.002;-1.592;2023-05-08T07:37:07;16;16;
59546;PMS5003;45368;55.002;-1.592;2023-05-08T07:39:34;17;17;
59546;PMS5003;45368;55.002;-1.592;2023-05-08T07:42:01;17;15;
59546;PMS5003;45368;55.002;-1.592;2023-05-08T07:44:30;15;13;
59546;PMS5003;45368;55.002;-1.592;2023-05-08T07:46:57;16;14;
59546;PMS5003;45368;55.002;-1.592;2023-05-08T07:49:25;15;14;
59546;PMS5003;45368;55.002;-1.592;2023-05-08T07:51:52;12;12;
59546;PMS5003;45368;55.002;-1.592;2023-05-08T07:54:20;13;12;
59546;PMS5003;45368;55.002;-1.592;2023-05-08T07:56:48;12;11;
59546;PMS5003;45368;55.002;-1.592;2023-05-08T07:59:14;17;13;
59546;PMS5003;45368;55.002;-1.592;2023-05-08T08:01:41;12;12;
59546;PMS5003;45368;55.002;-1.592;2023-05-08T08:04:09;13;13;
59546;PMS5003;45368;55.002;-1.592;2023-05-08T08:06:36;11;11;
59546;PMS5003;45368;55.002;-1.592;2023-05-08T08:09:03;11;9;
59546;PMS5003;45368;55.002;-1.592;2023-05-08T08:11:31;11;8;
59546;PMS5003;45368;55.002;-1.592;2023-05-08T08:13:58;10;10;
59546;PMS5003;45368;55.002;-1.592;2023-05-08T08:16:25;11;9;
59546;PMS5003;45368;55.002;-1.592;2023-05-08T08:18:53;10;10;
59546;PMS5003;45368;55.002;-1.592;2023-05-08T08:21:20;8;8;
59546;PMS5003;45368;55.002;-1.592;2023-05-08T08:23:48;11;10;
59546;PMS5003;45368;55.002;-1.592;2023-05-08T08:26:15;9;9;
59546;PMS5003;45368;55.002;-1.592;2023-05-08T08:28:44;10;10;
59546;PMS5003;45368;55.002;-1.592;2023-05-08T08:31:11;10;10;
59546;PMS5003;45368;55.002;-1.592;2023-05-08T08:33:38;8;7;
59546;PMS5003;45368;55.002;-1.592;2023-05-08T08:36:10;8;7;
59546;PMS5003;45368;55.002;-1.592;2023-05-08T08:38:38;8;7;
59546;PMS5003;45368;55.002;-1.592;2023-05-08T08:41:06;9;9;
59546;PMS5003;45368;55.002;-1.592;2023-05-08T08:43:33;9;7;
59546;PMS5003;45368;55.002;-1.592;2023-05-08T08:46:01;11;10;
59546;PMS5003;45368;55.002;-1.592;2023-05-08T08:48:35;7;7;
59546;PMS5003;45368;55.002;-1.592;2023-05-08T08:51:08;9;8;
59546;PMS5003;45368;55.002;-1.592;2023-05-08T08:53:49;7;6;
59546;PMS5003;45368;55.002;-1.592;2023-05-08T08:56:24;9;9;
59546;PMS5003;45368;55.002;-1.592;2023-05-08T08:58:53;9;8;
59546;PMS5003;45368;55.002;-1.592;2023-05-08T09:01:22;9;8;
59546;PMS5003;45368;55.002;-1.592;2023-05-08T09:03:51;8;8;
59546;PMS5003;45368;55.002;-1.592;2023-05-08T09:06:18;7;6;
59546;PMS5003;45368;55.002;-1.592;2023-05-08T09:08:45;7;6;
59546;PMS5003;45368;55.002;-1.592;2023-05-08T09:11:13;8;8;
59546;PMS5003;45368;55.002;-1.592;2023-05-08T09:13:40;9;8;
59546;PMS5003;45368;55.002;-1.592;2023-05-08T09:16:06;8;8;
59546;PMS5003;45368;55.002;-1.592;2023-05-08T09:18:33;9;7;
59546;PMS5003;45368;55.002;-1.592;2023-05-08T09:21:01;10;7;
59546;PMS5003;45368;55.002;-1.592;2023-05-08T09:23:31;8;7;
59546;PMS5003;45368;55.002;-1.592;2023-05-08T09:25:57;7;7;
59546;PMS5003;45368;55.002;-1.592;2023-05-08T09:28:24;8;6;
59546;PMS5003;45368;55.002;-1.592;2023-05-08T09:30:52;9;8;
59546;PMS5003;45368;55.002;-1.592;2023-05-08T09:33:21;8;7;
59546;PMS5003;45368;55.002;-1.592;2023-05-08T09:35:50;12;9;
59546;PMS5003;45368;55.002;-1.592;2023-05-08T09:38:36;7;7;
59546;PMS5003;45368;55.002;-1.592;2023-05-08T09:41:05;7;6;
59546;PMS5003;45368;55.002;-1.592;2023-05-08T09:43:36;8;8;
59546;PMS5003;45368;55.002;-1.592;2023-05-08T09:46:21;8;7;
59546;PMS5003;45368;55.002;-1.592;2023-05-08T09:48:50;8;8;
59546;PMS5003;45368;55.002;-1.592;2023-05-08T09:52:22;12;11;
59546;PMS5003;45368;55.002;-1.592;2023-05-08T09:55:01;10;9;
59546;PMS5003;45368;55.002;-1.592;2023-05-08T09:57:30;9;8;
59546;PMS5003;45368;55.002;-1.592;2023-05-08T10:03:11;8;8;
59546;PMS5003;45368;55.002;-1.592;2023-05-08T10:05:38;12;10;
59546;PMS5003;45368;55.002;-1.592;2023-05-08T10:08:19;8;7;
59546;PMS5003;45368;55.002;-1.592;2023-05-08T10:10:48;9;9;
59546;PMS5003;45368;55.002;-1.592;2023-05-08T10:13:15;8;8;
59546;PMS5003;45368;55.002;-1.592;2023-05-08T10:15:42;8;8;
59546;PMS5003;45368;55.002;-1.592;2023-05-08T10:18:11;11;10;
59546;PMS5003;45368;55.002;-1.592;2023-05-08T10:20:41;10;9;
59546;PMS5003;45368;55.002;-1.592;2023-05-08T10:23:13;9;8;
59546;PMS5003;45368;55.002;-1.592;2023-05-08T10:25:43;8;8;
59546;PMS5003;45368;55.002;-1.592;2023-05-08T10:28:12;8;8;
59546;PMS5003;45368;55.002;-1.592;2023-05-08T10:30:46;6;6;
59546;PMS5003;45368;55.002;-1.592;2023-05-08T10:33:17;7;7;
59546;PMS5003;45368;55.002;-1.592;2023-05-08T10:35:46;6;6;
59546;PMS5003;45368;55.002;-1.592;2023-05-08T10:38:14;7;7;
59546;PMS5003;45368;55.002;-1.592;2023-05-08T10:40:42;8;8;
59546;PMS5003;45368;55.002;-1.592;2023-05-08T10:43:10;9;9;
59546;PMS5003;45368;55.002;-1.592;2023-05-08T10:45:38;7;7;
59546;PMS5003;45368;55.002;-1.592;2023-05-08T10:48:07;9;8;
59546;PMS5003;45368;55.002;-1.592;2023-05-08T10:50:49;14;12;
59546;PMS5003;45368;55.002;-1.592;2023-05-08T10:53:30;9;9;
59546;PMS5003;45368;55.002;-1.592;2023-05-08T10:56:04;7;7;
59546;PMS5003;45368;55.002;-1.592;2023-05-08T10:58:32;11;10;
59546;PMS5003;45368;55.002;-1.592;2023-05-08T11:01:16;8;8;
59546;PMS5003;45368;55.002;-1.592;2023-05-08T11:03:45;11;10;
59546;PMS5003;45368;55.002;-1.592;2023-05-08T11:06:13;11;10;
59546;PMS5003;45368;55.002;-1.592;2023-05-08T11:08:44;9;9;
59546;PMS5003;45368;55.002;-1.592;2023-05-08T11:11:16;12;11;
59546;PMS5003;45368;55.002;-1.592;2023-05-08T11:13:51;8;8;
59546;PMS5003;45368;55.002;-1.592;2023-05-08T11:17:03;10;10;
59546;PMS5003;45368;55.002;-1.592;2023-05-08T11:19:31;10;9;
59546;PMS5003;45368;55.002;-1.592;2023-05-08T11:22:16;11;10;
59546;PMS5003;45368;55.002;-1.592;2023-05-08T11:24:51;10;9;
59546;PMS5003;45368;55.002;-1.592;2023-05-08T11:27:38;10;9;
59546;PMS5003;45368;55.002;-1.592;2023-05-08T11:30:35;6;6;
59546;PMS5003;45368;55.002;-1.592;2023-05-08T11:33:11;9;9;
59546;PMS5003;45368;55.002;-1.592;2023-05-08T11:35:47;8;8;
59546;PMS5003;45368;55.002;-1.592;2023-05-08T11:38:18;8;7;
59546;PMS5003;45368;55.002;-1.592;2023-05-08T11:40:48;6;6;
59546;PMS5003;45368;55.002;-1.592;2023-05-08T11:43:24;8;7;
59546;PMS5003;45368;55.002;-1.592;2023-05-08T11:46:05;8;8;
59546;PMS5003;45368;55.002;-1.592;2023-05-08T11:48:33;8;8;
59546;PMS5003;45368;55.002;-1.592;2023-05-08T11:51:02;9;6;
59546;PMS5003;45368;55.002;-1.592;2023-05-08T11:53:29;6;6;
59546;PMS5003;45368;55.002;-1.592;2023-05-08T11:55:57;8;8;
59546;PMS5003;45368;55.002;-1.592;2023-05-08T11:58:25;7;7;
59546;PMS5003;45368;55.002;-1.592;2023-05-08T12:00:53;5;5;
59546;PMS5003;45368;55.002;-1.592;2023-05-08T12:03:21;8;8;
59546;PMS5003;45368;55.002;-1.592;2023-05-08T12:05:49;8;7;
59546;PMS5003;45368;55.002;-1.592;2023-05-08T12:08:26;7;6;
59546;PMS5003;45368;55.002;-1.592;2023-05-08T12:10:53;7;7;
59546;PMS5003;45368;55.002;-1.592;2023-05-08T12:13:22;5;5;
59546;PMS5003;45368;55.002;-1.592;2023-05-08T12:15:50;6;5;
59546;PMS5003;45368;55.002;-1.592;2023-05-08T12:18:19;7;7;
59546;PMS5003;45368;55.002;-1.592;2023-05-08T12:20:53;6;6;
59546;PMS5003;45368;55.002;-1.592;2023-05-08T12:23:23;11;9;
59546;PMS5003;45368;55.002;-1.592;2023-05-08T12:25:51;7;7;
59546;PMS5003;45368;55.002;-1.592;2023-05-08T12:28:19;5;5;
59546;PMS5003;45368;55.002;-1.592;2023-05-08T12:30:46;5;4;
59546;PMS5003;45368;55.002;-1.592;2023-05-08T12:33:14;6;6;
59546;PMS5003;45368;55.002;-1.592;2023-05-08T12:35:42;7;6;
59546;PMS5003;45368;55.002;-1.592;2023-05-08T12:38:09;5;5;
59546;PMS5003;45368;55.002;-1.592;2023-05-08T12:40:39;6;6;
59546;PMS5003;45368;55.002;-1.592;2023-05-08T12:43:07;6;6;
59546;PMS5003;45368;55.002;-1.592;2023-05-08T12:45:36;6;6;
59546;PMS5003;45368;55.002;-1.592;2023-05-08T12:48:05;6;5;
59546;PMS5003;45368;55.002;-1.592;2023-05-08T12:50:33;7;7;
59546;PMS5003;45368;55.002;-1.592;2023-05-08T12:53:02;6;6;
59546;PMS5003;45368;55.002;-1.592;2023-05-08T12:55:31;6;6;
59546;PMS5003;45368;55.002;-1.592;2023-05-08T12:58:00;4;4;
59546;PMS5003;45368;55.002;-1.592;2023-05-08T13:00:37;6;6;
59546;PMS5003;45368;55.002;-1.592;2023-05-08T13:03:06;7;6;
59546;PMS5003;45368;55.002;-1.592;2023-05-08T13:05:35;9;8;
59546;PMS5003;45368;55.002;-1.592;2023-05-08T13:08:04;8;7;
59546;PMS5003;45368;55.002;-1.592;2023-05-08T13:10:49;6;6;
59546;PMS5003;45368;55.002;-1.592;2023-05-08T13:13:18;6;6;
59546;PMS5003;45368;55.002;-1.592;2023-05-08T13:15:48;6;6;
59546;PMS5003;45368;55.002;-1.592;2023-05-08T13:18:16;8;7;
59546;PMS5003;45368;55.002;-1.592;2023-05-08T13:20:44;4;4;
59546;PMS5003;45368;55.002;-1.592;2023-05-08T13:23:11;8;7;
59546;PMS5003;45368;55.002;-1.592;2023-05-08T13:25:39;7;6;
59546;PMS5003;45368;55.002;-1.592;2023-05-08T13:28:07;7;7;
59546;PMS5003;45368;55.002;-1.592;2023-05-08T13:30:35;8;8;
59546;PMS5003;45368;55.002;-1.592;2023-05-08T13:33:03;8;8;
59546;PMS5003;45368;55.002;-1.592;2023-05-08T13:35:31;8;8;
59546;PMS5003;45368;55.002;-1.592;2023-05-08T13:37:59;8;7;
59546;PMS5003;45368;55.002;-1.592;2023-05-08T13:40:28;9;9;
59546;PMS5003;45368;55.002;-1.592;2023-05-08T13:42:55;7;7;
59546;PMS5003;45368;55.002;-1.592;2023-05-08T13:45:22;7;7;
59546;PMS5003;45368;55.002;-1.592;2023-05-08T13:47:50;10;10;
59546;PMS5003;45368;55.002;-1.592;2023-05-08T13:50:18;12;11;
59546;PMS5003;45368;55.002;-1.592;2023-05-08T13:52:45;7;7;
59546;PMS5003;45368;55.002;-1.592;2023-05-08T13:55:13;6;6;
59546;PMS5003;45368;55.002;-1.592;2023-05-08T13:57:40;10;10;
59546;PMS5003;45368;55.002;-1.592;2023-05-08T14:00:08;7;7;
59546;PMS5003;45368;55.002;-1.592;2023-05-08T14:02:37;10;10;
59546;PMS5003;45368;55.002;-1.592;2023-05-08T14:05:04;6;6;
59546;PMS5003;45368;55.002;-1.592;2023-05-08T14:07:32;11;10;
59546;PMS5003;45368;55.002;-1.592;2023-05-08T14:10:00;10;10;
59546;PMS5003;45368;55.002;-1.592;2023-05-08T14:12:28;10;9;
59546;PMS5003;45368;55.002;-1.592;2023-05-08T14:14:56;10;10;
59546;PMS5003;45368;55.002;-1.592;2023-05-08T14:17:22;10;10;
59546;PMS5003;45368;55.002;-1.592;2023-05-08T14:19:50;11;11;
59546;PMS5003;45368;55.002;-1.592;2023-05-08T14:22:17;10;10;
59546;PMS5003;45368;55.002;-1.592;2023-05-08T14:24:44;15;15;
59546;PMS5003;45368;55.002;-1.592;2023-05-08T14:27:11;11;11;
59546;PMS5003;45368;55.002;-1.592;2023-05-08T14:29:39;15;13;
59546;PMS5003;45368;55.002;-1.592;2023-05-08T14:32:06;11;10;
59546;PMS5003;45368;55.002;-1.592;2023-05-08T14:34:34;10;10;
59546;PMS5003;45368;55.002;-1.592;2023-05-08T14:37:02;10;10;
59546;PMS5003;45368;55.002;-1.592;2023-05-08T14:39:30;9;9;
59546;PMS5003;45368;55.002;-1.592;2023-05-08T14:41:59;10;10;
59546;PMS5003;45368;55.002;-1.592;2023-05-08T14:44:27;8;7;
59546;PMS5003;45368;55.002;-1.592;2023-05-08T14:46:55;8;8;
59546;PMS5003;45368;55.002;-1.592;2023-05-08T14:49:21;8;8;
59546;PMS5003;45368;55.002;-1.592;2023-05-08T14:51:48;6;6;
59546;PMS5003;45368;55.002;-1.592;2023-05-08T14:54:15;8;8;
59546;PMS5003;45368;55.002;-1.592;2023-05-08T14:56:42;11;11;
59546;PMS5003;45368;55.002;-1.592;2023-05-08T14:59:09;10;10;
59546;PMS5003;45368;55.002;-1.592;2023-05-08T15:01:36;6;6;
59546;PMS5003;45368;55.002;-1.592;2023-05-08T15:04:04;8;7;
59546;PMS5003;45368;55.002;-1.592;2023-05-08T15:06:31;8;8;
59546;PMS5003;45368;55.002;-1.592;2023-05-08T15:08:58;9;9;
59546;PMS5003;45368;55.002;-1.592;2023-05-08T15:11:25;10;9;
59546;PMS5003;45368;55.002;-1.592;2023-05-08T15:13:53;8;8;
59546;PMS5003;45368;55.002;-1.592;2023-05-08T15:16:25;7;7;
59546;PMS5003;45368;55.002;-1.592;2023-05-08T15:18:52;9;8;
59546;PMS5003;45368;55.002;-1.592;2023-05-08T15:21:19;9;9;
59546;PMS5003;45368;55.002;-1.592;2023-05-08T15:23:52;8;8;
59546;PMS5003;45368;55.002;-1.592;2023-05-08T15:26:19;11;10;
59546;PMS5003;45368;55.002;-1.592;2023-05-08T15:28:48;10;9;
59546;PMS5003;45368;55.002;-1.592;2023-05-08T15:31:16;11;9;
59546;PMS5003;45368;55.002;-1.592;2023-05-08T15:33:44;9;8;
59546;PMS5003;45368;55.002;-1.592;2023-05-08T15:36:11;8;7;
59546;PMS5003;45368;55.002;-1.592;2023-05-08T15:38:39;9;9;
59546;PMS5003;45368;55.002;-1.592;2023-05-08T15:41:07;9;8;
59546;PMS5003;45368;55.002;-1.592;2023-05-08T15:43:36;7;7;
59546;PMS5003;45368;55.002;-1.592;2023-05-08T15:46:03;8;8;
59546;PMS5003;45368;55.002;-1.592;2023-05-08T15:48:31;9;8;
59546;PMS5003;45368;55.002;-1.592;2023-05-08T15:50:59;10;10;
59546;PMS5003;45368;55.002;-1.592;2023-05-08T15:53:26;8;8;
59546;PMS5003;45368;55.002;-1.592;2023-05-08T15:55:54;12;11;
59546;PMS5003;45368;55.002;-1.592;2023-05-08T15:58:21;8;8;
59546;PMS5003;45368;55.002;-1.592;2023-05-08T16:00:49;10;9;
59546;PMS5003;45368;55.002;-1.592;2023-05-08T16:03:16;10;9;
59546;PMS5003;45368;55.002;-1.592;2023-05-08T16:05:43;6;6;
59546;PMS5003;45368;55.002;-1.592;2023-05-08T16:08:10;7;7;
59546;PMS5003;45368;55.002;-1.592;2023-05-08T16:10:37;6;6;
59546;PMS5003;45368;55.002;-1.592;2023-05-08T16:13:05;9;9;
59546;PMS5003;45368;55.002;-1.592;2023-05-08T16:15:33;9;9;
59546;PMS5003;45368;55.002;-1.592;2023-05-08T16:18:00;11;11;
59546;PMS5003;45368;55.002;-1.592;2023-05-08T16:20:28;8;8;
59546;PMS5003;45368;55.002;-1.592;2023-05-08T16:22:55;8;8;
59546;PMS5003;45368;55.002;-1.592;2023-05-08T16:25:23;9;8;
59546;PMS5003;45368;55.002;-1.592;2023-05-08T16:27:51;9;9;
59546;PMS5003;45368;55.002;-1.592;2023-05-08T16:30:18;10;9;
59546;PMS5003;45368;55.002;-1.592;2023-05-08T16:32:45;11;11;
59546;PMS5003;45368;55.002;-1.592;2023-05-08T16:35:13;11;11;
59546;PMS5003;45368;55.002;-1.592;2023-05-08T16:37:41;11;10;
59546;PMS5003;45368;55.002;-1.592;2023-05-08T16:40:08;11;11;
59546;PMS5003;45368;55.002;-1.592;2023-05-08T16:42:37;10;10;